createdAt,value
2023-01-19T00:01:43.551Z,19.97
2023-01-19T00:04:11.390Z,23.13
2023-01-19T00:06:39.416Z,20.03
2023-01-19T00:09:07.116Z,20.27
2023-01-19T00:11:35.044Z,18.53
2023-01-19T00:14:03.489Z,19.97
2023-01-19T00:16:31.463Z,21.37
2023-01-19T00:18:59.389Z,20.90
2023-01-19T00:21:27.201Z,20.43
2023-01-19T00:23:55.064Z,23.53
2023-01-19T00:26:22.950Z,20.00
2023-01-19T00:28:51.382Z,18.50
2023-01-19T00:31:21.837Z,18.70
2023-01-19T00:33:51.760Z,15.33
2023-01-19T00:36:20.389Z,19.17
2023-01-19T00:38:48.346Z,18.20
2023-01-19T00:41:17.456Z,20.70
2023-01-19T00:43:45.177Z,18.63
2023-01-19T00:46:13.031Z,19.03
2023-01-19T00:48:40.994Z,16.60
2023-01-19T00:51:08.683Z,21.07
2023-01-19T00:53:36.819Z,22.13
2023-01-19T00:56:05.071Z,22.93
2023-01-19T00:58:32.949Z,19.47
2023-01-19T01:01:04.874Z,17.60
2023-01-19T01:03:33.712Z,18.33
2023-01-19T01:06:01.923Z,16.83
2023-01-19T01:08:32.205Z,18.67
2023-01-19T01:11:00.290Z,19.80
2023-01-19T01:13:29.327Z,19.30
2023-01-19T01:15:58.001Z,19.73
2023-01-19T01:18:26.437Z,21.73
2023-01-19T01:21:01.727Z,18.57
2023-01-19T01:23:29.729Z,21.60
2023-01-19T01:25:57.432Z,21.53
2023-01-19T01:28:26.857Z,20.40
2023-01-19T01:30:57.516Z,20.80
2023-01-19T01:33:41.241Z,17.70
2023-01-19T01:36:12.172Z,23.80
2023-01-19T01:38:42.502Z,22.17
2023-01-19T01:41:10.733Z,25.77
2023-01-19T01:43:58.546Z,21.13
2023-01-19T01:46:32.162Z,19.17
2023-01-19T01:49:17.788Z,17.90
2023-01-19T01:51:55.190Z,18.13
2023-01-19T01:54:33.700Z,20.40
2023-01-19T01:57:12.946Z,22.77
2023-01-19T01:59:50.697Z,20.23
2023-01-19T02:02:50.924Z,19.60
2023-01-19T02:05:35.624Z,21.27
2023-01-19T02:09:05.796Z,19.00
2023-01-19T02:11:54.606Z,20.97
2023-01-19T02:14:22.867Z,18.73
2023-01-19T02:16:50.851Z,19.50
2023-01-19T02:19:42.565Z,20.13
2023-01-19T02:22:40.741Z,19.50
2023-01-19T02:25:09.352Z,20.40
2023-01-19T02:27:37.919Z,21.90
2023-01-19T02:30:08.667Z,18.53
2023-01-19T02:32:36.625Z,18.73
2023-01-19T02:35:05.539Z,22.67
2023-01-19T02:37:40.209Z,22.83
2023-01-19T02:40:22.264Z,24.27
2023-01-19T02:42:56.698Z,17.53
2023-01-19T02:45:27.354Z,18.03
2023-01-19T02:47:55.498Z,37.07
2023-01-19T02:50:49.509Z,19.77
2023-01-19T02:54:35.771Z,20.80
2023-01-19T02:58:14.375Z,20.17
2023-01-19T03:01:21.804Z,20.73
2023-01-19T03:04:34.263Z,21.70
2023-01-19T03:07:21.370Z,24.70
2023-01-19T03:10:31.012Z,17.03
2023-01-19T03:13:26.482Z,21.63
2023-01-19T03:16:26.010Z,17.70
2023-01-19T03:19:17.012Z,20.67
2023-01-19T03:22:05.585Z,20.40
2023-01-19T03:24:42.239Z,23.00
2023-01-19T03:27:41.367Z,20.87
2023-01-19T03:30:26.183Z,18.93
2023-01-19T03:33:12.920Z,18.40
2023-01-19T03:35:54.905Z,20.80
2023-01-19T03:38:29.013Z,18.77
2023-01-19T03:41:08.722Z,21.23
2023-01-19T03:43:40.516Z,22.80
2023-01-19T03:46:11.307Z,20.10
2023-01-19T03:48:39.838Z,15.43
2023-01-19T03:51:11.442Z,21.40
2023-01-19T03:53:39.326Z,19.33
2023-01-19T03:56:18.829Z,20.33
2023-01-19T03:58:47.605Z,23.83
2023-01-19T04:01:18.797Z,20.00
2023-01-19T04:03:47.485Z,21.97
2023-01-19T04:06:15.359Z,20.47
2023-01-19T04:08:43.295Z,18.60
2023-01-19T04:11:11.362Z,18.80
2023-01-19T04:13:39.247Z,22.30
2023-01-19T04:16:08.095Z,27.23
2023-01-19T04:18:36.130Z,23.47
2023-01-19T04:21:08.247Z,24.70
2023-01-19T04:23:36.159Z,23.37
2023-01-19T04:26:09.529Z,23.87
2023-01-19T04:28:37.692Z,22.00
2023-01-19T04:31:08.097Z,21.87
2023-01-19T04:33:35.871Z,21.67
2023-01-19T04:36:04.289Z,20.23
2023-01-19T04:38:32.043Z,24.13
2023-01-19T04:40:59.758Z,23.73
2023-01-19T04:43:27.529Z,20.40
2023-01-19T04:45:55.292Z,24.40
2023-01-19T04:48:23.146Z,22.20
2023-01-19T04:50:52.838Z,23.67
2023-01-19T04:53:20.697Z,27.47
2023-01-19T04:55:52.688Z,27.50
2023-01-19T04:58:20.598Z,25.83
2023-01-19T05:00:48.610Z,22.30
2023-01-19T05:03:16.261Z,25.77
2023-01-19T05:05:44.001Z,26.10
2023-01-19T05:08:11.904Z,25.80
2023-01-19T05:10:39.658Z,25.40
2023-01-19T05:13:07.603Z,26.20
2023-01-19T05:15:35.438Z,32.57
2023-01-19T05:18:03.232Z,35.00
2023-01-19T05:20:30.920Z,31.40
2023-01-19T05:22:59.220Z,28.10
2023-01-19T05:25:27.326Z,29.13
2023-01-19T05:27:54.947Z,31.27
2023-01-19T05:30:22.822Z,29.37
2023-01-19T05:32:51.285Z,28.23
2023-01-19T05:35:27.744Z,25.30
2023-01-19T05:37:59.584Z,28.20
2023-01-19T05:40:27.236Z,28.87
2023-01-19T05:42:55.137Z,27.67
2023-01-19T05:45:22.737Z,24.90
2023-01-19T05:47:51.097Z,20.97
2023-01-19T05:50:18.956Z,27.17
2023-01-19T05:52:47.208Z,25.77
2023-01-19T05:55:16.654Z,27.20
2023-01-19T05:57:44.422Z,25.33
2023-01-19T06:00:13.854Z,27.40
2023-01-19T06:02:41.789Z,32.80
2023-01-19T06:05:10.486Z,28.80
2023-01-19T06:07:38.295Z,37.13
2023-01-19T06:10:07.864Z,31.57
2023-01-19T06:12:36.122Z,38.00
2023-01-19T06:15:04.775Z,38.00
2023-01-19T06:17:36.453Z,32.87
2023-01-19T06:20:05.521Z,33.40
2023-01-19T06:22:33.552Z,30.60
2023-01-19T06:25:01.283Z,32.70
2023-01-19T06:27:29.342Z,35.20
2023-01-19T06:29:57.204Z,39.03
2023-01-19T06:32:24.978Z,29.40
2023-01-19T06:34:54.014Z,38.93
2023-01-19T06:37:21.964Z,30.67
2023-01-19T06:39:49.714Z,29.50
2023-01-19T06:42:17.313Z,33.40
2023-01-19T06:44:47.623Z,35.10
2023-01-19T06:47:16.936Z,23.23
2023-01-19T06:49:44.977Z,29.50
2023-01-19T06:52:17.708Z,24.50
2023-01-19T06:54:46.326Z,24.57
2023-01-19T06:57:15.403Z,24.33
2023-01-19T06:59:43.065Z,23.07
2023-01-19T07:02:27.665Z,28.17
2023-01-19T07:04:57.242Z,32.73
2023-01-19T07:07:25.309Z,23.90
2023-01-19T07:09:54.338Z,22.67
2023-01-19T07:12:23.485Z,30.13
2023-01-19T07:14:51.818Z,29.37
2023-01-19T07:17:20.477Z,31.87
2023-01-19T07:19:48.170Z,25.27
2023-01-19T07:22:15.875Z,33.37
2023-01-19T07:24:43.995Z,29.83
2023-01-19T07:27:11.747Z,34.23
2023-01-19T07:29:40.017Z,31.60
2023-01-19T07:32:08.197Z,42.77
2023-01-19T07:34:36.566Z,35.00
2023-01-19T07:37:04.572Z,33.37
2023-01-19T07:39:32.256Z,35.43
2023-01-19T07:42:00.483Z,43.70
2023-01-19T07:44:28.163Z,37.37
2023-01-19T07:46:55.943Z,40.00
2023-01-19T07:49:23.634Z,37.93
2023-01-19T07:51:51.263Z,35.20
2023-01-19T07:54:19.067Z,34.43
2023-01-19T07:56:46.779Z,43.73
2023-01-19T07:59:14.800Z,45.40
2023-01-19T08:01:42.563Z,40.40
2023-01-19T08:04:11.131Z,38.30
2023-01-19T08:06:41.226Z,35.20
2023-01-19T08:09:09.089Z,35.53
2023-01-19T08:11:36.833Z,31.50
2023-01-19T08:14:07.881Z,41.50
2023-01-19T08:16:37.216Z,35.97
2023-01-19T08:19:05.721Z,33.87
2023-01-19T08:21:33.783Z,38.43
2023-01-19T08:24:01.625Z,33.63
2023-01-19T08:26:35.706Z,35.07
2023-01-19T08:29:06.193Z,35.90
2023-01-19T08:31:34.177Z,42.03
2023-01-19T08:34:02.057Z,35.50
2023-01-19T08:36:30.559Z,42.57
2023-01-19T08:38:58.408Z,40.93
2023-01-19T08:41:26.999Z,52.20
2023-01-19T08:43:55.314Z,49.23
2023-01-19T08:46:24.242Z,52.43
2023-01-19T08:48:51.912Z,54.60
2023-01-19T08:51:19.878Z,48.47
2023-01-19T08:53:48.339Z,45.20
2023-01-19T08:56:16.645Z,49.67
2023-01-19T08:58:49.399Z,49.20
2023-01-19T09:01:25.585Z,51.37
2023-01-19T09:03:54.679Z,44.70
2023-01-19T09:06:23.618Z,53.73
2023-01-19T09:08:51.537Z,44.60
2023-01-19T09:11:19.970Z,39.37
2023-01-19T09:13:47.779Z,41.87
2023-01-19T09:16:16.031Z,41.07
2023-01-19T09:18:46.273Z,45.43
2023-01-19T09:21:15.196Z,45.03
2023-01-19T09:23:43.170Z,49.70
2023-01-19T09:26:11.454Z,42.43
2023-01-19T09:28:39.860Z,49.33
2023-01-19T09:31:09.960Z,49.10
2023-01-19T09:33:38.034Z,49.50
2023-01-19T09:36:06.522Z,48.00
2023-01-19T09:38:34.258Z,44.50
2023-01-19T09:41:02.324Z,54.07
2023-01-19T09:43:47.555Z,42.80
2023-01-19T09:46:40.545Z,46.27
2023-01-19T09:49:28.102Z,54.53
2023-01-19T09:51:55.790Z,55.87
2023-01-19T09:54:59.206Z,52.67
2023-01-19T09:57:30.174Z,43.17
2023-01-19T10:00:00.762Z,44.97
2023-01-19T10:02:59.340Z,44.23
2023-01-19T10:05:52.118Z,52.37
2023-01-19T10:09:17.452Z,44.73
2023-01-19T10:12:31.969Z,48.20
2023-01-19T10:15:42.472Z,43.00
2023-01-19T10:18:52.321Z,47.00
2023-01-19T10:21:41.076Z,67.87
2023-01-19T10:24:45.599Z,44.63
2023-01-19T10:27:27.413Z,43.30
2023-01-19T10:30:02.502Z,41.97
2023-01-19T10:32:43.382Z,46.23
2023-01-19T10:35:26.342Z,45.97
2023-01-19T10:38:04.931Z,48.73
2023-01-19T10:41:12.312Z,43.53
2023-01-19T10:43:46.048Z,43.13
2023-01-19T10:46:46.142Z,43.30
2023-01-19T10:49:42.740Z,41.70
2023-01-19T10:52:39.835Z,40.90
2023-01-19T10:55:35.025Z,53.20
2023-01-19T10:58:03.095Z,43.63
2023-01-19T11:00:43.088Z,38.40
2023-01-19T11:03:32.663Z,38.30
2023-01-19T11:06:15.673Z,41.03
2023-01-19T11:08:48.519Z,45.03
2023-01-19T11:11:16.415Z,48.43
2023-01-19T11:13:45.374Z,35.60
2023-01-19T11:16:35.892Z,38.47
2023-01-19T11:19:05.328Z,46.37
2023-01-19T11:21:34.397Z,42.70
2023-01-19T11:24:13.380Z,41.90
2023-01-19T11:27:02.991Z,37.47
2023-01-19T11:29:32.080Z,35.17
2023-01-19T11:32:23.309Z,34.33
2023-01-19T11:34:51.194Z,36.73
2023-01-19T11:37:19.011Z,36.17
2023-01-19T11:40:02.773Z,32.10
2023-01-19T11:42:36.668Z,40.37
2023-01-19T11:45:20.251Z,38.40
2023-01-19T11:47:51.912Z,41.63
2023-01-19T11:50:44.376Z,42.03
2023-01-19T11:53:29.316Z,38.20
2023-01-19T11:56:23.878Z,49.17
2023-01-19T11:58:52.064Z,47.00
2023-01-19T12:01:35.807Z,41.90
2023-01-19T12:04:19.425Z,46.70
2023-01-19T12:06:56.655Z,54.23
2023-01-19T12:09:42.942Z,54.47
2023-01-19T12:12:33.568Z,53.90
2023-01-19T12:15:35.157Z,53.43
2023-01-19T12:18:13.054Z,45.83
2023-01-19T12:20:54.930Z,51.80
2023-01-19T12:23:53.869Z,52.97
2023-01-19T12:26:55.611Z,43.53
2023-01-19T12:29:33.827Z,44.50
2023-01-19T12:32:20.391Z,48.70
2023-01-19T12:34:52.430Z,55.33
2023-01-19T12:37:42.410Z,52.77
2023-01-19T12:40:31.491Z,50.40
2023-01-19T12:43:07.867Z,44.77
2023-01-19T12:45:39.922Z,41.63
2023-01-19T12:48:28.181Z,55.00
2023-01-19T12:50:56.022Z,58.37
2023-01-19T12:53:23.800Z,41.70
2023-01-19T12:56:10.189Z,48.03
2023-01-19T12:58:38.021Z,53.33
2023-01-19T13:01:21.887Z,47.33
2023-01-19T13:04:38.851Z,49.10
2023-01-19T13:07:10.715Z,54.43
2023-01-19T13:09:40.319Z,64.40
2023-01-19T13:12:27.041Z,54.53
2023-01-19T13:15:35.686Z,53.07
2023-01-19T13:18:04.761Z,52.70
2023-01-19T13:21:03.583Z,63.07
2023-01-19T13:23:57.402Z,59.23
2023-01-19T13:27:00.252Z,54.33
2023-01-19T13:29:43.079Z,43.63
2023-01-19T13:32:21.546Z,56.33
2023-01-19T13:34:59.233Z,48.43
2023-01-19T13:37:45.388Z,51.80
2023-01-19T13:40:37.010Z,45.03
2023-01-19T13:43:18.294Z,40.73
2023-01-19T13:45:53.532Z,42.03
2023-01-19T13:48:24.783Z,44.63
2023-01-19T13:51:07.349Z,44.47
2023-01-19T13:53:36.689Z,39.63
2023-01-19T13:56:21.947Z,43.40
2023-01-19T13:59:10.473Z,37.63
2023-01-19T14:01:46.911Z,40.43
2023-01-19T14:04:34.570Z,40.13
2023-01-19T14:07:23.532Z,34.50
2023-01-19T14:10:06.397Z,38.33
2023-01-19T14:12:36.135Z,33.33
2023-01-19T14:15:14.491Z,34.23
2023-01-19T14:17:42.790Z,32.70
2023-01-19T14:20:30.908Z,36.67
2023-01-19T14:22:58.802Z,34.80
2023-01-19T14:25:38.705Z,35.97
2023-01-19T14:28:44.667Z,30.00
2023-01-19T14:31:28.211Z,28.40
2023-01-19T14:33:58.688Z,29.87
2023-01-19T14:36:39.898Z,25.23
2023-01-19T14:39:25.175Z,25.83
2023-01-19T14:41:57.682Z,28.57
2023-01-19T14:44:39.255Z,22.83
2023-01-19T14:47:41.624Z,31.67
2023-01-19T14:50:30.361Z,25.40
2023-01-19T14:53:24.532Z,24.80
2023-01-19T14:56:05.629Z,29.00
2023-01-19T14:58:36.246Z,30.00
2023-01-19T15:01:04.967Z,34.10
2023-01-19T15:03:44.312Z,32.87
2023-01-19T15:06:23.594Z,24.67
2023-01-19T15:08:55.861Z,27.33
2023-01-19T15:11:36.663Z,25.50
2023-01-19T15:14:04.505Z,29.27
2023-01-19T15:16:35.023Z,31.17
2023-01-19T15:19:02.833Z,30.57
2023-01-19T15:21:30.652Z,28.77
2023-01-19T15:23:58.711Z,26.00
2023-01-19T15:26:27.990Z,29.60
2023-01-19T15:28:57.370Z,34.00
2023-01-19T15:31:27.176Z,27.97
2023-01-19T15:33:55.605Z,28.20
2023-01-19T15:36:25.554Z,27.77
2023-01-19T15:38:53.483Z,27.60
2023-01-19T15:41:30.116Z,37.30
2023-01-19T15:43:59.395Z,36.80
2023-01-19T15:46:28.274Z,27.57
2023-01-19T15:48:56.213Z,31.67
2023-01-19T15:51:27.402Z,29.57
2023-01-19T15:53:56.640Z,32.10
2023-01-19T15:56:30.678Z,33.30
2023-01-19T15:59:02.077Z,28.10
2023-01-19T16:01:34.765Z,31.40
2023-01-19T16:04:08.109Z,31.63
2023-01-19T16:06:36.342Z,32.07
2023-01-19T16:09:09.172Z,32.27
2023-01-19T16:11:38.453Z,33.33
2023-01-19T16:14:06.242Z,29.70
2023-01-19T16:16:35.419Z,28.33
2023-01-19T16:19:03.358Z,35.13
2023-01-19T16:21:31.161Z,31.70
2023-01-19T16:23:59.003Z,32.50
2023-01-19T16:26:34.692Z,32.37
2023-01-19T16:29:10.811Z,36.23
2023-01-19T16:31:45.647Z,34.40
2023-01-19T16:34:13.443Z,35.30
2023-01-19T16:36:42.833Z,30.83
2023-01-19T16:39:16.070Z,37.60
2023-01-19T16:41:46.351Z,35.93
2023-01-19T16:44:17.661Z,33.17
2023-01-19T16:46:49.841Z,33.00
2023-01-19T16:49:28.595Z,30.40
2023-01-19T16:51:58.834Z,32.97
2023-01-19T16:54:29.395Z,33.63
2023-01-19T16:56:59.002Z,30.37
2023-01-19T16:59:27.575Z,29.30
2023-01-19T17:01:56.204Z,32.70
2023-01-19T17:04:39.087Z,29.47
2023-01-19T17:07:06.892Z,28.97
2023-01-19T17:09:34.861Z,27.50
2023-01-19T17:12:02.593Z,29.40
2023-01-19T17:14:30.214Z,29.27
2023-01-19T17:16:59.752Z,26.20
2023-01-19T17:19:30.264Z,26.37
2023-01-19T17:21:58.193Z,28.10
2023-01-19T17:24:25.994Z,31.00
2023-01-19T17:26:53.792Z,24.80
2023-01-19T17:29:21.439Z,24.87
2023-01-19T17:31:52.077Z,32.80
2023-01-19T17:34:19.851Z,33.63
2023-01-19T17:36:50.617Z,34.70
2023-01-19T17:39:18.687Z,28.37
2023-01-19T17:41:46.869Z,29.20
2023-01-19T17:44:15.518Z,26.93
2023-01-19T17:46:45.120Z,33.07
2023-01-19T17:49:13.055Z,31.67
2023-01-19T17:51:40.948Z,33.63
2023-01-19T17:54:10.954Z,41.30
2023-01-19T17:56:41.429Z,33.17
2023-01-19T17:59:10.032Z,29.90
2023-01-19T18:01:40.697Z,30.70
2023-01-19T18:04:09.724Z,31.57
2023-01-19T18:06:39.083Z,32.77
2023-01-19T18:09:08.164Z,29.10
2023-01-19T18:11:39.162Z,40.63
2023-01-19T18:14:07.205Z,34.00
2023-01-19T18:16:36.253Z,36.17
2023-01-19T18:19:04.456Z,37.83
2023-01-19T18:21:32.633Z,34.77
2023-01-19T18:24:06.649Z,42.40
2023-01-19T18:26:37.934Z,36.40
2023-01-19T18:29:06.028Z,47.63
2023-01-19T18:31:34.460Z,31.07
2023-01-19T18:34:04.400Z,48.47
2023-01-19T18:36:34.429Z,41.67
2023-01-19T18:39:02.759Z,45.00
2023-01-19T18:41:31.101Z,39.37
2023-01-19T18:43:59.855Z,42.20
2023-01-19T18:46:27.854Z,36.80
2023-01-19T18:48:55.632Z,40.33
2023-01-19T18:51:23.657Z,34.27
2023-01-19T18:53:51.725Z,40.97
2023-01-19T18:56:20.007Z,41.90
2023-01-19T18:58:48.056Z,37.73
2023-01-19T19:01:33.015Z,42.53
2023-01-19T19:04:01.961Z,38.47
2023-01-19T19:06:29.852Z,41.53
2023-01-19T19:08:59.665Z,36.40
2023-01-19T19:11:28.715Z,41.47
2023-01-19T19:14:02.245Z,37.70
2023-01-19T19:16:33.350Z,34.10
2023-01-19T19:19:02.993Z,38.63
2023-01-19T19:21:30.732Z,42.20
2023-01-19T19:23:59.380Z,38.50
2023-01-19T19:26:28.555Z,35.17
2023-01-19T19:28:57.132Z,40.40
2023-01-19T19:31:27.628Z,38.57
2023-01-19T19:33:59.813Z,37.67
2023-01-19T19:36:29.239Z,35.53
2023-01-19T19:38:59.769Z,34.93
2023-01-19T19:41:32.298Z,35.93
2023-01-19T19:44:01.058Z,40.67
2023-01-19T19:46:29.322Z,48.20
2023-01-19T19:48:57.312Z,42.20
2023-01-19T19:51:28.828Z,37.43
2023-01-19T19:54:01.299Z,41.23
2023-01-19T19:56:34.354Z,37.33
2023-01-19T19:59:02.809Z,38.03
2023-01-19T20:01:33.671Z,41.07
2023-01-19T20:04:13.012Z,42.73
2023-01-19T20:06:44.883Z,45.30
2023-01-19T20:09:15.735Z,40.50
2023-01-19T20:11:50.152Z,47.37
2023-01-19T20:14:18.382Z,41.43
2023-01-19T20:16:46.237Z,40.47
2023-01-19T20:19:14.523Z,36.90
2023-01-19T20:21:43.428Z,39.30
2023-01-19T20:24:19.980Z,40.10
2023-01-19T20:26:54.858Z,39.83
2023-01-19T20:29:23.218Z,41.77
2023-01-19T20:31:57.146Z,40.60
2023-01-19T20:34:33.457Z,44.70
2023-01-19T20:37:04.821Z,39.57
2023-01-19T20:39:35.353Z,43.80
2023-01-19T20:42:06.014Z,44.20
2023-01-19T20:44:33.895Z,41.97
2023-01-19T20:47:01.794Z,41.23
2023-01-19T20:49:29.616Z,46.43
2023-01-19T20:51:57.481Z,35.60
2023-01-19T20:54:30.611Z,37.80
2023-01-19T20:56:59.962Z,36.30
2023-01-19T20:59:28.287Z,41.47
2023-01-19T21:01:58.947Z,35.27
2023-01-19T21:04:26.899Z,35.70
2023-01-19T21:06:54.744Z,39.00
2023-01-19T21:09:22.997Z,38.93
2023-01-19T21:11:50.745Z,36.33
2023-01-19T21:14:18.549Z,40.63
2023-01-19T21:16:46.344Z,42.83
2023-01-19T21:19:14.229Z,38.10
2023-01-19T21:21:41.921Z,34.60
2023-01-19T21:24:11.640Z,44.50
2023-01-19T21:26:42.013Z,32.47
2023-01-19T21:29:13.765Z,33.63
2023-01-19T21:31:43.067Z,41.30
2023-01-19T21:34:11.789Z,34.90
2023-01-19T21:36:40.291Z,36.70
2023-01-19T21:39:09.228Z,34.17
2023-01-19T21:41:39.944Z,44.30
2023-01-19T21:44:14.049Z,39.83
2023-01-19T21:46:45.607Z,34.63
2023-01-19T21:49:21.449Z,36.80
2023-01-19T21:51:52.886Z,34.67
2023-01-19T21:54:20.858Z,36.47
2023-01-19T21:56:48.514Z,35.53
2023-01-19T21:59:18.008Z,34.87
2023-01-19T22:01:47.134Z,32.13
2023-01-19T22:04:27.204Z,37.47
2023-01-19T22:06:57.217Z,39.20
2023-01-19T22:09:25.640Z,38.10
2023-01-19T22:11:53.685Z,39.33
2023-01-19T22:14:21.372Z,38.10
2023-01-19T22:16:49.326Z,46.27
2023-01-19T22:19:17.803Z,44.03
2023-01-19T22:21:46.406Z,36.73
2023-01-19T22:24:17.383Z,34.33
2023-01-19T22:26:45.356Z,38.20
2023-01-19T22:29:13.981Z,43.23
2023-01-19T22:31:43.267Z,44.13
2023-01-19T22:34:12.241Z,40.37
2023-01-19T22:36:40.907Z,36.20
2023-01-19T22:39:14.580Z,44.07
2023-01-19T22:41:47.420Z,40.70
2023-01-19T22:44:21.389Z,43.50
2023-01-19T22:46:54.938Z,41.53
2023-01-19T22:49:23.125Z,36.60
2023-01-19T22:51:50.749Z,44.43
2023-01-19T22:54:18.555Z,41.00
2023-01-19T22:56:46.329Z,41.13
2023-01-19T22:59:14.237Z,44.00
2023-01-19T23:01:44.576Z,41.77
2023-01-19T23:04:16.587Z,42.87
2023-01-19T23:06:50.285Z,47.03
2023-01-19T23:09:19.679Z,39.23
2023-01-19T23:11:53.028Z,43.23
2023-01-19T23:14:22.743Z,45.17
2023-01-19T23:16:50.707Z,47.00
2023-01-19T23:19:19.696Z,45.80
2023-01-19T23:21:51.092Z,42.90
2023-01-19T23:24:19.208Z,54.03
2023-01-19T23:26:49.305Z,52.50
2023-01-19T23:29:18.125Z,49.83
2023-01-19T23:31:49.928Z,46.13
2023-01-19T23:34:18.163Z,50.63
2023-01-19T23:36:46.151Z,46.43
2023-01-19T23:39:20.680Z,48.43
2023-01-19T23:41:49.773Z,48.70
2023-01-19T23:44:19.040Z,49.93
2023-01-19T23:46:47.558Z,54.17
2023-01-19T23:49:15.535Z,50.00
2023-01-19T23:51:43.381Z,54.83
2023-01-19T23:54:12.399Z,57.67
2023-01-19T23:56:42.704Z,54.33
2023-01-19T23:59:16.544Z,57.63
